sensor_id;sensor_type;location;lat;lon;timestamp;pressure;altitude;pressure_sealevel;temperature;humidity
3102;BME280;1561;42.666;23.392;2022-09-02T00:01:44;94913.19;;;20.36;100.00
3102;BME280;1561;42.666;23.392;2022-09-02T00:04:14;94921.78;;;20.37;100.00
3102;BME280;1561;42.666;23.392;2022-09-02T00:06:43;94922.00;;;20.42;100.00
3102;BME280;1561;42.666;23.392;2022-09-02T00:09:15;94851.28;;;20.06;100.00
3102;BME280;1561;42.666;23.392;2022-09-02T00:11:45;94916.56;;;20.37;100.00
3102;BME280;1561;42.666;23.392;2022-09-02T00:14:15;94906.59;;;20.40;100.00
3102;BME280;1561;42.666;23.392;2022-09-02T00:16:46;94911.47;;;20.50;100.00
3102;BME280;1561;42.666;23.392;2022-09-02T00:19:17;94915.84;;;20.43;100.00
3102;BME280;1561;42.666;23.392;2022-09-02T00:21:48;94889.63;;;20.38;100.00
3102;BME280;1561;42.666;23.392;2022-09-02T00:24:16;94913.88;;;20.51;100.00
3102;BME280;1561;42.666;23.392;2022-09-02T00:26:47;94907.50;;;20.54;100.00
3102;BME280;1561;42.666;23.392;2022-09-02T00:29:14;94916.81;;;20.76;100.00
3102;BME280;1561;42.666;23.392;2022-09-02T00:31:44;94910.22;;;20.80;100.00
3102;BME280;1561;42.666;23.392;2022-09-02T00:34:14;94924.41;;;20.77;100.00
3102;BME280;1561;42.666;23.392;2022-09-02T00:36:44;94919.06;;;20.85;100.00
3102;BME280;1561;42.666;23.392;2022-09-02T00:39:12;94932.72;;;20.66;100.00
3102;BME280;1561;42.666;23.392;2022-09-02T00:41:45;94935.38;;;20.79;100.00
3102;BME280;1561;42.666;23.392;2022-09-02T00:44:14;94921.44;;;20.80;100.00
3102;BME280;1561;42.666;23.392;2022-09-02T00:46:44;94934.59;;;20.79;100.00
3102;BME280;1561;42.666;23.392;2022-09-02T00:49:13;94937.97;;;20.79;100.00
3102;BME280;1561;42.666;23.392;2022-09-02T00:51:44;94902.91;;;20.56;100.00
3102;BME280;1561;42.666;23.392;2022-09-02T00:54:25;94933.72;;;20.65;100.00
3102;BME280;1561;42.666;23.392;2022-09-02T00:56:55;94935.59;;;20.84;100.00
3102;BME280;1561;42.666;23.392;2022-09-02T00:59:28;94940.22;;;20.82;100.00
3102;BME280;1561;42.666;23.392;2022-09-02T01:01:59;94919.97;;;20.71;100.00
3102;BME280;1561;42.666;23.392;2022-09-02T01:04:32;94923.59;;;20.77;100.00
3102;BME280;1561;42.666;23.392;2022-09-02T01:07:01;94929.50;;;20.92;100.00
3102;BME280;1561;42.666;23.392;2022-09-02T01:09:35;94920.53;;;20.94;100.00
3102;BME280;1561;42.666;23.392;2022-09-02T01:12:05;94915.28;;;20.88;100.00
3102;BME280;1561;42.666;23.392;2022-09-02T01:14:41;94925.84;;;20.86;100.00
3102;BME280;1561;42.666;23.392;2022-09-02T01:17:10;94924.09;;;20.93;100.00
3102;BME280;1561;42.666;23.392;2022-09-02T01:19:41;94862.75;;;20.45;100.00
3102;BME280;1561;42.666;23.392;2022-09-02T01:22:17;94923.59;;;20.77;100.00
3102;BME280;1561;42.666;23.392;2022-09-02T01:24:47;94919.56;;;20.68;100.00
3102;BME280;1561;42.666;23.392;2022-09-02T01:27:18;94921.16;;;20.69;100.00
3102;BME280;1561;42.666;23.392;2022-09-02T01:30:06;94921.63;;;20.79;100.00
3102;BME280;1561;42.666;23.392;2022-09-02T01:32:36;94887.59;;;20.61;100.00
3102;BME280;1561;42.666;23.392;2022-09-02T01:35:05;94855.41;;;20.55;100.00
3102;BME280;1561;42.666;23.392;2022-09-02T01:37:39;94919.72;;;20.94;100.00
3102;BME280;1561;42.666;23.392;2022-09-02T01:40:09;94922.63;;;20.84;100.00
3102;BME280;1561;42.666;23.392;2022-09-02T01:42:37;94922.03;;;20.82;100.00
3102;BME280;1561;42.666;23.392;2022-09-02T01:45:06;94915.06;;;20.83;100.00
3102;BME280;1561;42.666;23.392;2022-09-02T01:47:34;94898.94;;;20.94;100.00
3102;BME280;1561;42.666;23.392;2022-09-02T01:50:03;94903.75;;;20.97;100.00
3102;BME280;1561;42.666;23.392;2022-09-02T01:52:35;94854.69;;;20.74;100.00
3102;BME280;1561;42.666;23.392;2022-09-02T01:55:05;94888.78;;;21.05;100.00
3102;BME280;1561;42.666;23.392;2022-09-02T01:57:43;94881.59;;;21.07;100.00
3102;BME280;1561;42.666;23.392;2022-09-02T02:00:12;94866.81;;;21.08;100.00
3102;BME280;1561;42.666;23.392;2022-09-02T02:02:40;94855.19;;;21.04;100.00
3102;BME280;1561;42.666;23.392;2022-09-02T02:05:08;94877.56;;;20.92;100.00
3102;BME280;1561;42.666;23.392;2022-09-02T02:07:43;94870.75;;;20.91;100.00
3102;BME280;1561;42.666;23.392;2022-09-02T02:10:13;94855.63;;;21.01;100.00
3102;BME280;1561;42.666;23.392;2022-09-02T02:12:41;94859.16;;;20.93;100.00
3102;BME280;1561;42.666;23.392;2022-09-02T02:15:12;94871.91;;;20.88;100.00
3102;BME280;1561;42.666;23.392;2022-09-02T02:17:42;94875.47;;;20.81;100.00
3102;BME280;1561;42.666;23.392;2022-09-02T02:20:11;94872.06;;;20.74;100.00
3102;BME280;1561;42.666;23.392;2022-09-02T02:22:43;94882.22;;;20.69;100.00
3102;BME280;1561;42.666;23.392;2022-09-02T02:25:13;94868.34;;;20.49;100.00
3102;BME280;1561;42.666;23.392;2022-09-02T02:27:42;94885.91;;;20.53;100.00
3102;BME280;1561;42.666;23.392;2022-09-02T02:30:13;94880.00;;;20.66;100.00
3102;BME280;1561;42.666;23.392;2022-09-02T02:32:41;94880.13;;;20.51;100.00
3102;BME280;1561;42.666;23.392;2022-09-02T02:35:10;94892.69;;;20.48;100.00
3102;BME280;1561;42.666;23.392;2022-09-02T02:37:37;94878.81;;;20.28;100.00
3102;BME280;1561;42.666;23.392;2022-09-02T02:40:08;94881.66;;;20.39;100.00
3102;BME280;1561;42.666;23.392;2022-09-02T02:42:38;94888.81;;;20.31;100.00
3102;BME280;1561;42.666;23.392;2022-09-02T02:45:08;94897.34;;;20.25;100.00
3102;BME280;1561;42.666;23.392;2022-09-02T02:47:42;94899.41;;;20.08;100.00
3102;BME280;1561;42.666;23.392;2022-09-02T02:50:17;94904.34;;;20.03;100.00
3102;BME280;1561;42.666;23.392;2022-09-02T02:52:49;94911.06;;;19.98;100.00
3102;BME280;1561;42.666;23.392;2022-09-02T02:55:18;94901.72;;;19.76;100.00
3102;BME280;1561;42.666;23.392;2022-09-02T02:57:47;94898.16;;;19.77;100.00
3102;BME280;1561;42.666;23.392;2022-09-02T03:00:18;94836.13;;;19.27;100.00
3102;BME280;1561;42.666;23.392;2022-09-02T03:03:09;94898.16;;;19.56;100.00
3102;BME280;1561;42.666;23.392;2022-09-02T03:05:37;94898.03;;;19.43;100.00
3102;BME280;1561;42.666;23.392;2022-09-02T03:08:05;94908.47;;;19.49;100.00
3102;BME280;1561;42.666;23.392;2022-09-02T03:10:46;94907.91;;;19.54;100.00
3102;BME280;1561;42.666;23.392;2022-09-02T03:13:14;94911.75;;;19.37;100.00
3102;BME280;1561;42.666;23.392;2022-09-02T03:15:43;94906.56;;;19.37;100.00
3102;BME280;1561;42.666;23.392;2022-09-02T03:18:12;94900.00;;;19.41;100.00
3102;BME280;1561;42.666;23.392;2022-09-02T03:20:42;94900.63;;;19.43;100.00
3102;BME280;1561;42.666;23.392;2022-09-02T03:23:15;94895.22;;;19.38;100.00
3102;BME280;1561;42.666;23.392;2022-09-02T03:25:46;94837.75;;;18.92;100.00
3102;BME280;1561;42.666;23.392;2022-09-02T03:28:14;94901.47;;;19.50;100.00
3102;BME280;1561;42.666;23.392;2022-09-02T03:30:45;94846.88;;;19.09;100.00
3102;BME280;1561;42.666;23.392;2022-09-02T03:33:12;94911.19;;;19.41;100.00
3102;BME280;1561;42.666;23.392;2022-09-02T03:35:44;94903.59;;;19.61;100.00
3102;BME280;1561;42.666;23.392;2022-09-02T03:38:12;94908.59;;;19.41;100.00
3102;BME280;1561;42.666;23.392;2022-09-02T03:40:55;94904.47;;;19.47;100.00
3102;BME280;1561;42.666;23.392;2022-09-02T03:43:23;94901.25;;;19.45;100.00
3102;BME280;1561;42.666;23.392;2022-09-02T03:45:51;94920.81;;;19.26;100.00
3102;BME280;1561;42.666;23.392;2022-09-02T03:48:21;94873.22;;;18.98;100.00
3102;BME280;1561;42.666;23.392;2022-09-02T03:50:56;94932.59;;;19.29;100.00
3102;BME280;1561;42.666;23.392;2022-09-02T03:53:29;94911.06;;;19.14;100.00
3102;BME280;1561;42.666;23.392;2022-09-02T03:56:05;94946.41;;;19.21;100.00
3102;BME280;1561;42.666;23.392;2022-09-02T03:58:36;94948.66;;;19.24;100.00
3102;BME280;1561;42.666;23.392;2022-09-02T04:01:05;94952.13;;;19.31;100.00
3102;BME280;1561;42.666;23.392;2022-09-02T04:03:35;94943.16;;;19.48;100.00
3102;BME280;1561;42.666;23.392;2022-09-02T04:06:07;94956.09;;;19.48;100.00
3102;BME280;1561;42.666;23.392;2022-09-02T04:08:34;94953.00;;;19.38;100.00
3102;BME280;1561;42.666;23.392;2022-09-02T04:11:06;94956.72;;;19.50;100.00
3102;BME280;1561;42.666;23.392;2022-09-02T04:13:36;94939.06;;;19.39;100.00
3102;BME280;1561;42.666;23.392;2022-09-02T04:16:09;94952.34;;;19.51;100.00
3102;BME280;1561;42.666;23.392;2022-09-02T04:18:38;94956.81;;;19.42;100.00
3102;BME280;1561;42.666;23.392;2022-09-02T04:21:09;94949.63;;;19.80;100.00
3102;BME280;1561;42.666;23.392;2022-09-02T04:23:43;94958.22;;;19.80;100.00
3102;BME280;1561;42.666;23.392;2022-09-02T04:26:16;94962.88;;;19.91;100.00
3102;BME280;1561;42.666;23.392;2022-09-02T04:28:48;94967.22;;;19.63;100.00
3102;BME280;1561;42.666;23.392;2022-09-02T04:31:17;94964.88;;;19.68;100.00
3102;BME280;1561;42.666;23.392;2022-09-02T04:33:46;94972.59;;;19.83;100.00
3102;BME280;1561;42.666;23.392;2022-09-02T04:36:16;94971.84;;;19.89;100.00
3102;BME280;1561;42.666;23.392;2022-09-02T04:38:44;94978.53;;;19.77;100.00
3102;BME280;1561;42.666;23.392;2022-09-02T04:41:14;94971.47;;;19.92;100.00
3102;BME280;1561;42.666;23.392;2022-09-02T04:43:42;94967.59;;;20.02;100.00
3102;BME280;1561;42.666;23.392;2022-09-02T04:46:16;94967.69;;;19.73;100.00
3102;BME280;1561;42.666;23.392;2022-09-02T04:48:45;94979.94;;;19.79;100.00
3102;BME280;1561;42.666;23.392;2022-09-02T04:51:15;94978.88;;;19.74;100.00
3102;BME280;1561;42.666;23.392;2022-09-02T04:53:45;94982.91;;;19.76;100.00
3102;BME280;1561;42.666;23.392;2022-09-02T04:56:22;94981.66;;;19.93;100.00
3102;BME280;1561;42.666;23.392;2022-09-02T04:58:51;94983.75;;;20.04;100.00
3102;BME280;1561;42.666;23.392;2022-09-02T05:01:21;94987.66;;;20.15;100.00
3102;BME280;1561;42.666;23.392;2022-09-02T05:03:49;94982.63;;;20.34;100.00
3102;BME280;1561;42.666;23.392;2022-09-02T05:06:22;94985.25;;;20.13;100.00
3102;BME280;1561;42.666;23.392;2022-09-02T05:08:52;94974.31;;;19.97;100.00
3102;BME280;1561;42.666;23.392;2022-09-02T05:11:24;94993.47;;;19.96;100.00
3102;BME280;1561;42.666;23.392;2022-09-02T05:14:00;94977.09;;;19.95;100.00
3102;BME280;1561;42.666;23.392;2022-09-02T05:16:33;94987.41;;;20.10;100.00
3102;BME280;1561;42.666;23.392;2022-09-02T05:19:08;94980.88;;;20.14;100.00
3102;BME280;1561;42.666;23.392;2022-09-02T05:21:39;94967.22;;;19.84;100.00
3102;BME280;1561;42.666;23.392;2022-09-02T05:24:07;94994.69;;;19.79;100.00
3102;BME280;1561;42.666;23.392;2022-09-02T05:26:39;94983.88;;;19.96;100.00
3102;BME280;1561;42.666;23.392;2022-09-02T05:29:11;94991.00;;;20.09;100.00
3102;BME280;1561;42.666;23.392;2022-09-02T05:31:39;94984.66;;;20.11;100.00
3102;BME280;1561;42.666;23.392;2022-09-02T05:34:07;94979.25;;;19.92;100.00
3102;BME280;1561;42.666;23.392;2022-09-02T05:36:36;94997.16;;;19.87;100.00
3102;BME280;1561;42.666;23.392;2022-09-02T05:39:06;94989.84;;;19.76;100.00
3102;BME280;1561;42.666;23.392;2022-09-02T05:41:38;94986.47;;;19.75;100.00
3102;BME280;1561;42.666;23.392;2022-09-02T05:44:07;94989.69;;;19.77;100.00
3102;BME280;1561;42.666;23.392;2022-09-02T05:46:40;94995.13;;;19.61;100.00
3102;BME280;1561;42.666;23.392;2022-09-02T05:49:09;94988.75;;;19.64;100.00
3102;BME280;1561;42.666;23.392;2022-09-02T05:51:43;94994.94;;;19.84;100.00
3102;BME280;1561;42.666;23.392;2022-09-02T05:54:14;94995.81;;;19.91;100.00
3102;BME280;1561;42.666;23.392;2022-09-02T05:56:44;94997.63;;;20.11;100.00
3102;BME280;1561;42.666;23.392;2022-09-02T05:59:12;94987.41;;;20.10;100.00
3102;BME280;1561;42.666;23.392;2022-09-02T06:01:41;94975.25;;;20.10;100.00
3102;BME280;1561;42.666;23.392;2022-09-02T06:04:08;94983.25;;;20.36;100.00
3102;BME280;1561;42.666;23.392;2022-09-02T06:06:36;94992.25;;;20.13;100.00
3102;BME280;1561;42.666;23.392;2022-09-02T06:09:04;94971.69;;;20.11;100.00
3102;BME280;1561;42.666;23.392;2022-09-02T06:11:33;94987.88;;;20.41;100.00
3102;BME280;1561;42.666;23.392;2022-09-02T06:14:06;94971.84;;;20.58;100.00
3102;BME280;1561;42.666;23.392;2022-09-02T06:16:36;94985.84;;;20.98;100.00
3102;BME280;1561;42.666;23.392;2022-09-02T06:19:04;94989.75;;;20.87;100.00
3102;BME280;1561;42.666;23.392;2022-09-02T06:21:36;94989.38;;;20.29;100.00
3102;BME280;1561;42.666;23.392;2022-09-02T06:24:04;94993.63;;;20.36;100.00
3102;BME280;1561;42.666;23.392;2022-09-02T06:26:32;94991.91;;;20.50;100.00
3102;BME280;1561;42.666;23.392;2022-09-02T06:29:00;94994.97;;;20.60;100.00
3102;BME280;1561;42.666;23.392;2022-09-02T06:31:28;94990.06;;;20.71;100.00
3102;BME280;1561;42.666;23.392;2022-09-02T06:33:56;94991.09;;;20.77;100.00
3102;BME280;1561;42.666;23.392;2022-09-02T06:36:26;94992.88;;;20.70;100.00
3102;BME280;1561;42.666;23.392;2022-09-02T06:38:56;94997.47;;;20.74;100.00
3102;BME280;1561;42.666;23.392;2022-09-02T06:41:26;95000.13;;;20.81;100.00
3102;BME280;1561;42.666;23.392;2022-09-02T06:44:11;95004.53;;;20.53;100.00
3102;BME280;1561;42.666;23.392;2022-09-02T06:46:52;94998.75;;;20.85;100.00
3102;BME280;1561;42.666;23.392;2022-09-02T06:49:24;95005.72;;;20.84;100.00
3102;BME280;1561;42.666;23.392;2022-09-02T06:51:54;94999.94;;;20.82;100.00
3102;BME280;1561;42.666;23.392;2022-09-02T06:54:24;94999.63;;;20.92;100.00
3102;BME280;1561;42.666;23.392;2022-09-02T06:56:53;95008.38;;;20.91;100.00
3102;BME280;1561;42.666;23.392;2022-09-02T06:59:26;95006.25;;;21.01;100.00
3102;BME280;1561;42.666;23.392;2022-09-02T07:01:58;95003.66;;;21.01;100.00
3102;BME280;1561;42.666;23.392;2022-09-02T07:04:28;95004.94;;;21.11;100.00
3102;BME280;1561;42.666;23.392;2022-09-02T07:07:14;95006.34;;;21.14;100.00
3102;BME280;1561;42.666;23.392;2022-09-02T07:09:43;95009.56;;;21.22;100.00
3102;BME280;1561;42.666;23.392;2022-09-02T07:12:17;95020.69;;;21.10;100.00
3102;BME280;1561;42.666;23.392;2022-09-02T07:14:55;95024.53;;;21.14;100.00
3102;BME280;1561;42.666;23.392;2022-09-02T07:17:32;95021.66;;;21.09;100.00
3102;BME280;1561;42.666;23.392;2022-09-02T07:20:05;95019.47;;;21.06;100.00
3102;BME280;1561;42.666;23.392;2022-09-02T07:22:39;95019.63;;;20.98;100.00
3102;BME280;1561;42.666;23.392;2022-09-02T07:25:09;95021.03;;;21.00;100.00
3102;BME280;1561;42.666;23.392;2022-09-02T07:27:38;95025.59;;;20.92;100.00
3102;BME280;1561;42.666;23.392;2022-09-02T07:30:09;95010.19;;;21.31;100.00
3102;BME280;1561;42.666;23.392;2022-09-02T07:32:42;95009.84;;;21.47;100.00
3102;BME280;1561;42.666;23.392;2022-09-02T07:35:09;95029.50;;;21.15;100.00
3102;BME280;1561;42.666;23.392;2022-09-02T07:37:39;95032.69;;;21.11;100.00
3102;BME280;1561;42.666;23.392;2022-09-02T07:40:07;95029.88;;;21.06;100.00
3102;BME280;1561;42.666;23.392;2022-09-02T07:42:39;95030.56;;;20.93;100.00
3102;BME280;1561;42.666;23.392;2022-09-02T07:45:07;95021.03;;;21.41;100.00
3102;BME280;1561;42.666;23.392;2022-09-02T07:47:38;95028.06;;;21.06;100.00
3102;BME280;1561;42.666;23.392;2022-09-02T07:50:07;95005.53;;;20.86;100.00
3102;BME280;1561;42.666;23.392;2022-09-02T07:52:35;95022.50;;;21.16;100.00
3102;BME280;1561;42.666;23.392;2022-09-02T07:55:03;95023.16;;;21.24;100.00
3102;BME280;1561;42.666;23.392;2022-09-02T07:57:33;95020.22;;;21.40;100.00
3102;BME280;1561;42.666;23.392;2022-09-02T08:00:12;95029.38;;;21.70;100.00
3102;BME280;1561;42.666;23.392;2022-09-02T08:02:41;95037.81;;;21.85;100.00
3102;BME280;1561;42.666;23.392;2022-09-02T08:05:12;95032.06;;;22.16;100.00
3102;BME280;1561;42.666;23.392;2022-09-02T08:07:40;95020.03;;;22.02;100.00
3102;BME280;1561;42.666;23.392;2022-09-02T08:10:11;95025.47;;;22.13;100.00
3102;BME280;1561;42.666;23.392;2022-09-02T08:12:41;95030.44;;;22.21;100.00
3102;BME280;1561;42.666;23.392;2022-09-02T08:15:15;95037.06;;;21.98;100.00
3102;BME280;1561;42.666;23.392;2022-09-02T08:17:48;95012.25;;;22.34;100.00
3102;BME280;1561;42.666;23.392;2022-09-02T08:20:25;95031.88;;;22.11;100.00
3102;BME280;1561;42.666;23.392;2022-09-02T08:22:56;95036.06;;;22.05;100.00
3102;BME280;1561;42.666;23.392;2022-09-02T08:25:24;94989.75;;;21.75;100.00
3102;BME280;1561;42.666;23.392;2022-09-02T08:27:54;95050.56;;;21.74;100.00
3102;BME280;1561;42.666;23.392;2022-09-02T08:30:23;95036.28;;;22.17;100.00
3102;BME280;1561;42.666;23.392;2022-09-02T08:32:53;95021.06;;;22.33;100.00
3102;BME280;1561;42.666;23.392;2022-09-02T08:35:22;95034.44;;;21.91;100.00
3102;BME280;1561;42.666;23.392;2022-09-02T08:37:56;95028.25;;;21.99;100.00
3102;BME280;1561;42.666;23.392;2022-09-02T08:40:30;95030.22;;;21.97;100.00
3102;BME280;1561;42.666;23.392;2022-09-02T08:43:02;95025.50;;;21.60;100.00
3102;BME280;1561;42.666;23.392;2022-09-02T08:45:35;95022.84;;;21.47;100.00
3102;BME280;1561;42.666;23.392;2022-09-02T08:48:06;95030.69;;;21.53;100.00
3102;BME280;1561;42.666;23.392;2022-09-02T08:50:41;95025.69;;;21.58;100.00
3102;BME280;1561;42.666;23.392;2022-09-02T08:53:19;95021.22;;;21.86;100.00
3102;BME280;1561;42.666;23.392;2022-09-02T08:55:53;95020.19;;;21.81;100.00
3102;BME280;1561;42.666;23.392;2022-09-02T08:58:26;95020.59;;;21.78;100.00
3102;BME280;1561;42.666;23.392;2022-09-02T09:01:02;95019.63;;;22.11;100.00
3102;BME280;1561;42.666;23.392;2022-09-02T09:03:42;95013.09;;;22.48;100.00
3102;BME280;1561;42.666;23.392;2022-09-02T09:06:21;95023.47;;;22.41;100.00
3102;BME280;1561;42.666;23.392;2022-09-02T09:09:08;95013.47;;;22.64;100.00
3102;BME280;1561;42.666;23.392;2022-09-02T09:11:40;95016.28;;;22.63;100.00
3102;BME280;1561;42.666;23.392;2022-09-02T09:14:18;95007.41;;;22.90;100.00
3102;BME280;1561;42.666;23.392;2022-09-02T09:16:53;94996.31;;;23.34;100.00
3102;BME280;1561;42.666;23.392;2022-09-02T09:19:32;94996.84;;;22.52;100.00
3102;BME280;1561;42.666;23.392;2022-09-02T09:22:04;95001.06;;;22.79;100.00
3102;BME280;1561;42.666;23.392;2022-09-02T09:24:37;95005.34;;;23.18;100.00
3102;BME280;1561;42.666;23.392;2022-09-02T09:27:11;94960.13;;;22.93;100.00
3102;BME280;1561;42.666;23.392;2022-09-02T09:29:47;94990.53;;;23.12;100.00
3102;BME280;1561;42.666;23.392;2022-09-02T09:32:24;94995.78;;;23.05;100.00
3102;BME280;1561;42.666;23.392;2022-09-02T09:35:06;94994.34;;;23.23;100.00
3102;BME280;1561;42.666;23.392;2022-09-02T09:37:55;94988.50;;;23.71;100.00
3102;BME280;1561;42.666;23.392;2022-09-02T09:40:30;94991.81;;;23.91;100.00
3102;BME280;1561;42.666;23.392;2022-09-02T09:43:11;94982.78;;;24.49;100.00
3102;BME280;1561;42.666;23.392;2022-09-02T09:45:57;94977.16;;;24.70;100.00
3102;BME280;1561;42.666;23.392;2022-09-02T09:48:26;94989.28;;;25.07;100.00
3102;BME280;1561;42.666;23.392;2022-09-02T09:51:14;94986.03;;;24.69;100.00
3102;BME280;1561;42.666;23.392;2022-09-02T09:53:45;94984.78;;;24.23;100.00
3102;BME280;1561;42.666;23.392;2022-09-02T09:56:29;94990.38;;;23.95;100.00
3102;BME280;1561;42.666;23.392;2022-09-02T09:59:07;94989.00;;;23.49;100.00
3102;BME280;1561;42.666;23.392;2022-09-02T10:01:37;94986.91;;;23.33;100.00
3102;BME280;1561;42.666;23.392;2022-09-02T10:04:06;94986.16;;;23.57;100.00
3102;BME280;1561;42.666;23.392;2022-09-02T10:06:39;94977.34;;;23.58;100.00
3102;BME280;1561;42.666;23.392;2022-09-02T10:09:36;94996.78;;;23.62;100.00
3102;BME280;1561;42.666;23.392;2022-09-02T10:12:08;94994.34;;;23.67;100.00
3102;BME280;1561;42.666;23.392;2022-09-02T10:14:55;94993.94;;;24.07;100.00
3102;BME280;1561;42.666;23.392;2022-09-02T10:17:31;94984.34;;;24.01;100.00
3102;BME280;1561;42.666;23.392;2022-09-02T10:20:08;94980.03;;;24.13;100.00
3102;BME280;1561;42.666;23.392;2022-09-02T10:22:52;94949.09;;;24.41;100.00
3102;BME280;1561;42.666;23.392;2022-09-02T10:25:32;94991.66;;;24.42;100.00
3102;BME280;1561;42.666;23.392;2022-09-02T10:28:22;94982.97;;;24.48;100.00
3102;BME280;1561;42.666;23.392;2022-09-02T10:31:01;94969.88;;;24.05;100.00
3102;BME280;1561;42.666;23.392;2022-09-02T10:33:44;94980.19;;;24.92;100.00
3102;BME280;1561;42.666;23.392;2022-09-02T10:36:22;94972.16;;;26.70;100.00
3102;BME280;1561;42.666;23.392;2022-09-02T10:38:55;94973.28;;;27.88;100.00
3102;BME280;1561;42.666;23.392;2022-09-02T10:41:40;94981.31;;;27.81;98.38
3102;BME280;1561;42.666;23.392;2022-09-02T10:44:28;94976.44;;;27.22;100.00
3102;BME280;1561;42.666;23.392;2022-09-02T10:47:01;94978.72;;;25.97;100.00
3102;BME280;1561;42.666;23.392;2022-09-02T10:49:53;94964.56;;;25.21;100.00
3102;BME280;1561;42.666;23.392;2022-09-02T10:52:55;94973.28;;;25.51;100.00
3102;BME280;1561;42.666;23.392;2022-09-02T10:55:39;94986.81;;;26.07;100.00
3102;BME280;1561;42.666;23.392;2022-09-02T10:58:24;94927.56;;;25.54;100.00
3102;BME280;1561;42.666;23.392;2022-09-02T11:01:01;94981.28;;;25.20;100.00
3102;BME280;1561;42.666;23.392;2022-09-02T11:03:37;94974.72;;;25.95;100.00
3102;BME280;1561;42.666;23.392;2022-09-02T11:06:12;94966.06;;;27.04;100.00
3102;BME280;1561;42.666;23.392;2022-09-02T11:08:43;94960.41;;;26.73;100.00
3102;BME280;1561;42.666;23.392;2022-09-02T11:11:19;94933.19;;;28.09;93.22
3102;BME280;1561;42.666;23.392;2022-09-02T11:13:59;94960.78;;;27.27;99.09
3102;BME280;1561;42.666;23.392;2022-09-02T11:16:32;94966.25;;;26.11;100.00
3102;BME280;1561;42.666;23.392;2022-09-02T11:19:10;94951.84;;;26.77;100.00
3102;BME280;1561;42.666;23.392;2022-09-02T11:21:49;94950.78;;;26.55;100.00
3102;BME280;1561;42.666;23.392;2022-09-02T11:24:21;94952.84;;;25.60;100.00
3102;BME280;1561;42.666;23.392;2022-09-02T11:26:59;94936.22;;;27.05;100.00
3102;BME280;1561;42.666;23.392;2022-09-02T11:29:39;94942.72;;;28.97;88.32
3102;BME280;1561;42.666;23.392;2022-09-02T11:32:16;94940.53;;;28.73;87.62
3102;BME280;1561;42.666;23.392;2022-09-02T11:34:50;94940.06;;;28.76;86.16
3102;BME280;1561;42.666;23.392;2022-09-02T11:37:27;94931.06;;;28.72;87.74
3102;BME280;1561;42.666;23.392;2022-09-02T11:40:02;94942.41;;;27.95;93.11
3102;BME280;1561;42.666;23.392;2022-09-02T11:43:02;94923.94;;;26.71;100.00
3102;BME280;1561;42.666;23.392;2022-09-02T11:45:51;94930.25;;;26.29;100.00
3102;BME280;1561;42.666;23.392;2022-09-02T11:48:58;94919.03;;;27.37;100.00
3102;BME280;1561;42.666;23.392;2022-09-02T11:52:00;94907.41;;;28.93;85.29
3102;BME280;1561;42.666;23.392;2022-09-02T11:54:47;94904.44;;;28.68;85.84
3102;BME280;1561;42.666;23.392;2022-09-02T11:57:23;94905.88;;;28.76;86.96
3102;BME280;1561;42.666;23.392;2022-09-02T12:00:11;94902.63;;;27.86;92.86
3102;BME280;1561;42.666;23.392;2022-09-02T12:02:46;94913.16;;;27.19;100.00
3102;BME280;1561;42.666;23.392;2022-09-02T12:08:56;94912.50;;;26.20;100.00
3102;BME280;1561;42.666;23.392;2022-09-02T12:11:43;94921.97;;;26.67;100.00
3102;BME280;1561;42.666;23.392;2022-09-02T12:17:38;94927.75;;;26.34;100.00
3102;BME280;1561;42.666;23.392;2022-09-02T12:21:01;94928.13;;;26.26;100.00
3102;BME280;1561;42.666;23.392;2022-09-02T12:23:01;94909.06;;;26.08;100.00
3102;BME280;1561;42.666;23.392;2022-09-02T12:25:37;94876.16;;;25.30;100.00
3102;BME280;1561;42.666;23.392;2022-09-02T12:28:23;94905.53;;;26.02;100.00
3102;BME280;1561;42.666;23.392;2022-09-02T12:31:16;94907.16;;;26.15;100.00
3102;BME280;1561;42.666;23.392;2022-09-02T12:40:25;94887.91;;;26.21;100.00
3102;BME280;1561;42.666;23.392;2022-09-02T12:43:01;94896.56;;;25.80;100.00
3102;BME280;1561;42.666;23.392;2022-09-02T12:45:31;94890.06;;;25.71;100.00
3102;BME280;1561;42.666;23.392;2022-09-02T12:48:07;94889.56;;;25.51;100.00
3102;BME280;1561;42.666;23.392;2022-09-02T12:50:52;94869.69;;;25.62;100.00
3102;BME280;1561;42.666;23.392;2022-09-02T12:53:28;94878.34;;;25.33;100.00
3102;BME280;1561;42.666;23.392;2022-09-02T12:56:01;94869.28;;;25.47;100.00
3102;BME280;1561;42.666;23.392;2022-09-02T12:58:34;94868.25;;;25.36;100.00
3102;BME280;1561;42.666;23.392;2022-09-02T13:01:15;94874.88;;;25.50;100.00
3102;BME280;1561;42.666;23.392;2022-09-02T13:03:54;94883.66;;;25.08;100.00
3102;BME280;1561;42.666;23.392;2022-09-02T13:06:41;94882.41;;;24.81;100.00
3102;BME280;1561;42.666;23.392;2022-09-02T13:12:44;94871.16;;;25.28;100.00
3102;BME280;1561;42.666;23.392;2022-09-02T13:15:50;94872.53;;;25.31;100.00
3102;BME280;1561;42.666;23.392;2022-09-02T13:18:44;94872.88;;;25.05;100.00
3102;BME280;1561;42.666;23.392;2022-09-02T13:28:01;94875.84;;;24.54;100.00
3102;BME280;1561;42.666;23.392;2022-09-02T13:33:13;94871.19;;;24.56;100.00
3102;BME280;1561;42.666;23.392;2022-09-02T13:35:43;94873.78;;;24.56;100.00
3102;BME280;1561;42.666;23.392;2022-09-02T13:38:11;94885.31;;;24.06;100.00
3102;BME280;1561;42.666;23.392;2022-09-02T13:40:42;94896.56;;;23.00;100.00
3102;BME280;1561;42.666;23.392;2022-09-02T13:43:20;94861.28;;;22.28;100.00
3102;BME280;1561;42.666;23.392;2022-09-02T13:45:48;94897.72;;;22.28;100.00
3102;BME280;1561;42.666;23.392;2022-09-02T13:48:19;94914.16;;;22.15;100.00
3102;BME280;1561;42.666;23.392;2022-09-02T13:50:56;94920.38;;;21.82;100.00
3102;BME280;1561;42.666;23.392;2022-09-02T13:53:27;94899.91;;;21.66;100.00
3102;BME280;1561;42.666;23.392;2022-09-02T13:56:00;94930.09;;;21.54;100.00
3102;BME280;1561;42.666;23.392;2022-09-02T13:58:34;94912.84;;;20.86;100.00
3102;BME280;1561;42.666;23.392;2022-09-02T14:01:21;94954.66;;;20.30;100.00